createdAt,value
2023-02-23T00:01:58.714Z,98.06
2023-02-23T00:04:25.290Z,98.14
2023-02-23T00:06:53.418Z,98.05
2023-02-23T00:09:23.788Z,98.01
2023-02-23T00:11:53.078Z,98.12
2023-02-23T00:14:27.455Z,98.15
2023-02-23T00:16:55.900Z,98.48
2023-02-23T00:19:24.840Z,98.39
2023-02-23T00:21:52.159Z,98.35
2023-02-23T00:24:23.156Z,98.29
2023-02-23T00:26:51.545Z,98.36
2023-02-23T00:29:21.231Z,98.19
2023-02-23T00:31:49.850Z,98.31
2023-02-23T00:34:24.120Z,98.23
2023-02-23T00:36:55.431Z,98.35
2023-02-23T00:39:25.161Z,98.17
2023-02-23T00:41:52.891Z,98.44
2023-02-23T00:44:21.792Z,98.68
2023-02-23T00:46:51.493Z,98.66
2023-02-23T00:49:19.104Z,98.40
2023-02-23T00:51:47.090Z,98.45
2023-02-23T00:54:15.550Z,98.44
2023-02-23T00:56:42.927Z,98.30
2023-02-23T00:59:10.785Z,98.16
2023-02-23T01:01:38.546Z,98.25
2023-02-23T01:04:06.281Z,98.36
2023-02-23T01:06:33.935Z,98.16
2023-02-23T01:09:05.282Z,98.04
2023-02-23T01:11:32.056Z,98.35
2023-02-23T01:13:59.880Z,98.33
2023-02-23T01:16:29.671Z,98.45
2023-02-23T01:18:58.398Z,98.35
2023-02-23T01:21:28.461Z,98.46
2023-02-23T01:23:55.955Z,98.30
2023-02-23T01:26:34.096Z,98.47
2023-02-23T01:29:09.096Z,98.08
2023-02-23T01:31:37.803Z,98.43
2023-02-23T01:34:06.170Z,98.43
2023-02-23T01:36:37.325Z,98.25
2023-02-23T01:39:07.754Z,98.28
2023-02-23T01:41:37.625Z,98.57
2023-02-23T01:44:07.928Z,98.36
2023-02-23T01:46:39.076Z,98.65
2023-02-23T01:49:09.189Z,98.44
2023-02-23T01:51:41.269Z,98.36
2023-02-23T01:54:16.018Z,98.60
2023-02-23T01:56:47.601Z,98.44
2023-02-23T01:59:16.466Z,98.72
2023-02-23T02:01:43.900Z,98.70
2023-02-23T02:04:16.634Z,98.91
2023-02-23T02:06:45.742Z,98.62
2023-02-23T02:09:19.585Z,98.89
2023-02-23T02:11:46.569Z,98.79
2023-02-23T02:14:14.524Z,98.90
2023-02-23T02:16:43.793Z,98.81
2023-02-23T02:19:18.710Z,98.82
2023-02-23T02:22:04.867Z,98.81
2023-02-23T02:24:41.626Z,98.94
2023-02-23T02:27:17.134Z,98.66
2023-02-23T02:30:21.652Z,98.74
2023-02-23T02:33:06.933Z,98.81
2023-02-23T02:36:05.347Z,98.53
2023-02-23T02:38:55.207Z,98.73
2023-02-23T02:41:53.718Z,98.63
2023-02-23T02:44:39.114Z,99.00
2023-02-23T02:47:12.129Z,99.10
2023-02-23T02:49:52.037Z,98.97
2023-02-23T02:52:33.285Z,99.00
2023-02-23T02:55:09.406Z,99.09
2023-02-23T02:57:37.315Z,99.19
2023-02-23T03:00:23.018Z,99.34
2023-02-23T03:03:07.796Z,99.16
2023-02-23T03:06:04.103Z,99.34
2023-02-23T03:09:07.172Z,99.50
2023-02-23T03:12:03.470Z,99.68
2023-02-23T03:15:08.201Z,99.66
2023-02-23T03:18:12.106Z,99.68
2023-02-23T03:21:12.593Z,99.87
2023-02-23T03:24:24.799Z,99.97
2023-02-23T03:27:18.080Z,99.70
2023-02-23T03:30:02.899Z,99.88
2023-02-23T03:32:54.532Z,99.99
2023-02-23T03:35:49.500Z,100.00
2023-02-23T03:38:59.425Z,100.00
2023-02-23T03:41:46.933Z,100.00
2023-02-23T03:44:36.814Z,100.00
2023-02-23T03:47:24.644Z,100.00
2023-02-23T03:50:12.850Z,100.00
2023-02-23T03:53:09.211Z,100.00
2023-02-23T03:56:01.190Z,100.00
2023-02-23T03:58:56.191Z,100.00
2023-02-23T04:01:47.959Z,100.00
2023-02-23T04:04:32.955Z,100.00
2023-02-23T04:07:21.283Z,100.00
2023-02-23T04:10:07.968Z,100.00
2023-02-23T04:13:00.638Z,100.00
2023-02-23T04:15:33.751Z,100.00
2023-02-23T04:18:00.879Z,100.00
2023-02-23T04:20:27.476Z,100.00
2023-02-23T04:22:55.101Z,100.00
2023-02-23T04:25:24.522Z,100.00
2023-02-23T04:27:51.170Z,100.00
2023-02-23T04:30:18.611Z,100.00
2023-02-23T04:32:46.058Z,100.00
2023-02-23T04:35:13.710Z,100.00
2023-02-23T04:37:40.241Z,100.00
2023-02-23T04:40:07.856Z,100.00
2023-02-23T04:42:34.358Z,100.00
2023-02-23T04:45:00.814Z,100.00
2023-02-23T04:47:29.924Z,100.00
2023-02-23T04:49:56.687Z,100.00
2023-02-23T04:52:23.887Z,100.00
2023-02-23T04:54:50.570Z,100.00
2023-02-23T04:57:17.233Z,100.00
2023-02-23T04:59:43.771Z,100.00
2023-02-23T05:02:10.432Z,100.00
2023-02-23T05:04:37.019Z,100.00
2023-02-23T05:07:04.856Z,100.00
2023-02-23T05:09:31.752Z,100.00
2023-02-23T05:11:58.865Z,100.00
2023-02-23T05:14:25.775Z,100.00
2023-02-23T05:16:52.763Z,100.00
2023-02-23T05:19:19.572Z,100.00
2023-02-23T05:21:46.173Z,100.00
2023-02-23T05:24:12.818Z,100.00
2023-02-23T05:26:39.943Z,100.00
2023-02-23T05:29:06.662Z,100.00
2023-02-23T05:31:33.341Z,100.00
2023-02-23T05:33:59.911Z,100.00
2023-02-23T05:36:31.655Z,100.00
2023-02-23T05:38:58.336Z,100.00
2023-02-23T05:41:24.967Z,100.00
2023-02-23T05:43:53.645Z,100.00
2023-02-23T05:46:24.176Z,100.00
2023-02-23T05:48:55.092Z,100.00
2023-02-23T05:51:22.163Z,100.00
2023-02-23T05:53:48.803Z,100.00
2023-02-23T05:56:20.903Z,100.00
2023-02-23T05:58:55.208Z,100.00
2023-02-23T06:01:22.596Z,100.00
2023-02-23T06:03:50.397Z,100.00
2023-02-23T06:06:17.747Z,100.00
2023-02-23T06:08:44.602Z,100.00
2023-02-23T06:11:11.551Z,100.00
2023-02-23T06:13:38.156Z,100.00
2023-02-23T06:16:05.170Z,100.00
2023-02-23T06:18:31.642Z,100.00
2023-02-23T06:21:02.450Z,100.00
2023-02-23T06:23:30.146Z,100.00
2023-02-23T06:25:56.812Z,100.00
2023-02-23T06:28:23.638Z,100.00
2023-02-23T06:30:54.234Z,100.00
2023-02-23T06:33:21.130Z,100.00
2023-02-23T06:35:47.644Z,100.00
2023-02-23T06:38:15.247Z,100.00
2023-02-23T06:40:42.027Z,100.00
2023-02-23T06:43:08.863Z,100.00
2023-02-23T06:45:35.503Z,100.00
2023-02-23T06:48:02.160Z,100.00
2023-02-23T06:50:28.823Z,100.00
2023-02-23T06:52:57.643Z,100.00
2023-02-23T06:55:24.566Z,100.00
2023-02-23T06:57:51.899Z,100.00
2023-02-23T07:00:18.964Z,100.00
2023-02-23T07:02:45.854Z,100.00
2023-02-23T07:05:12.489Z,100.00
2023-02-23T07:07:39.538Z,100.00
2023-02-23T07:10:07.525Z,100.00
2023-02-23T07:12:34.174Z,100.00
2023-02-23T07:15:00.816Z,100.00
2023-02-23T07:17:27.304Z,100.00
2023-02-23T07:19:53.863Z,100.00
2023-02-23T07:22:20.899Z,100.00
2023-02-23T07:24:48.225Z,100.00
2023-02-23T07:27:14.785Z,100.00
2023-02-23T07:29:43.516Z,100.00
2023-02-23T07:32:10.368Z,100.00
2023-02-23T07:34:37.896Z,100.00
2023-02-23T07:37:04.359Z,100.00
2023-02-23T07:39:31.238Z,100.00
2023-02-23T07:41:58.505Z,100.00
2023-02-23T07:44:25.041Z,100.00
2023-02-23T07:46:52.880Z,100.00
2023-02-23T07:49:21.570Z,100.00
2023-02-23T07:51:48.131Z,100.00
2023-02-23T07:54:15.682Z,100.00
2023-02-23T07:56:42.530Z,100.00
2023-02-23T07:59:09.284Z,100.00
2023-02-23T08:01:36.142Z,100.00
2023-02-23T08:04:02.742Z,100.00
2023-02-23T08:06:30.640Z,100.00
2023-02-23T08:09:00.656Z,100.00
2023-02-23T08:11:30.077Z,100.00
2023-02-23T08:14:00.426Z,100.00
2023-02-23T08:16:28.658Z,100.00
2023-02-23T08:18:58.289Z,100.00
2023-02-23T08:21:25.635Z,100.00
2023-02-23T08:23:52.275Z,100.00
2023-02-23T08:26:22.210Z,100.00
2023-02-23T08:28:48.933Z,100.00
2023-02-23T08:31:18.897Z,100.00
2023-02-23T08:33:46.893Z,100.00
2023-02-23T08:36:13.721Z,100.00
2023-02-23T08:38:40.275Z,100.00
2023-02-23T08:41:07.005Z,100.00
2023-02-23T08:43:33.632Z,100.00
2023-02-23T08:46:00.332Z,100.00
2023-02-23T08:48:27.141Z,100.00
2023-02-23T08:50:58.468Z,100.00
2023-02-23T08:53:29.598Z,100.00
2023-02-23T08:56:00.746Z,100.00
2023-02-23T08:58:28.911Z,100.00
2023-02-23T09:00:55.417Z,100.00
2023-02-23T09:03:23.368Z,100.00
2023-02-23T09:05:50.164Z,100.00
2023-02-23T09:08:16.760Z,100.00
2023-02-23T09:10:46.282Z,100.00
2023-02-23T09:13:13.514Z,100.00
2023-02-23T09:15:40.701Z,100.00
2023-02-23T09:18:08.546Z,100.00
2023-02-23T09:20:35.060Z,100.00
2023-02-23T09:23:01.569Z,100.00
2023-02-23T09:25:29.414Z,100.00
2023-02-23T09:27:59.888Z,100.00
2023-02-23T09:30:27.532Z,100.00
2023-02-23T09:32:55.339Z,100.00
2023-02-23T09:35:24.278Z,100.00
2023-02-23T09:37:53.571Z,100.00
2023-02-23T09:40:29.053Z,100.00
2023-02-23T09:43:07.624Z,100.00
2023-02-23T09:45:43.218Z,100.00
2023-02-23T09:48:19.372Z,100.00
2023-02-23T09:50:52.996Z,100.00
2023-02-23T09:53:43.003Z,99.65
2023-02-23T09:56:24.604Z,99.27
2023-02-23T09:58:51.300Z,99.25
2023-02-23T10:01:36.100Z,99.67
2023-02-23T10:04:27.307Z,99.68
2023-02-23T10:07:01.015Z,99.20
2023-02-23T10:09:46.989Z,99.23
2023-02-23T10:12:16.186Z,98.80
2023-02-23T10:15:14.349Z,98.48
2023-02-23T10:17:53.007Z,98.11
2023-02-23T10:20:38.351Z,97.97
2023-02-23T10:23:09.624Z,97.50
2023-02-23T10:25:43.138Z,96.79
2023-02-23T10:28:16.461Z,96.77
2023-02-23T10:30:44.358Z,96.54
2023-02-23T10:33:32.444Z,97.02
2023-02-23T10:36:13.732Z,97.25
2023-02-23T10:38:41.139Z,97.60
2023-02-23T10:41:09.146Z,97.60
2023-02-23T10:43:35.885Z,97.67
2023-02-23T10:46:02.639Z,97.96
2023-02-23T10:48:43.147Z,97.60
2023-02-23T10:51:20.481Z,97.53
2023-02-23T10:53:47.271Z,97.22
2023-02-23T10:56:17.012Z,97.13
2023-02-23T10:58:48.075Z,97.15
2023-02-23T11:01:35.972Z,96.93
2023-02-23T11:04:21.032Z,96.39
2023-02-23T11:06:49.583Z,96.37
2023-02-23T11:09:45.085Z,96.25
2023-02-23T11:12:22.052Z,96.07
2023-02-23T11:14:50.638Z,95.82
2023-02-23T11:17:30.327Z,95.68
2023-02-23T11:20:03.867Z,95.53
2023-02-23T11:22:36.956Z,95.34
2023-02-23T11:25:24.690Z,95.24
2023-02-23T11:27:53.118Z,95.29
2023-02-23T11:30:42.917Z,94.99
2023-02-23T11:33:16.879Z,94.92
2023-02-23T11:35:43.457Z,94.58
2023-02-23T11:38:23.803Z,94.19
2023-02-23T11:41:01.556Z,94.00
2023-02-23T11:43:28.369Z,94.00
2023-02-23T11:46:00.758Z,93.60
2023-02-23T11:48:49.624Z,93.29
2023-02-23T11:51:34.228Z,93.67
2023-02-23T11:54:05.528Z,93.66
2023-02-23T11:56:34.501Z,93.89
2023-02-23T11:59:04.710Z,94.42
2023-02-23T12:01:51.221Z,94.55
2023-02-23T12:04:38.755Z,94.66
2023-02-23T12:07:56.562Z,94.59
2023-02-23T12:10:31.023Z,94.68
2023-02-23T12:13:08.173Z,94.56
2023-02-23T12:15:45.143Z,94.64
2023-02-23T12:18:53.233Z,94.85
2023-02-23T12:21:44.613Z,94.92
2023-02-23T12:24:42.606Z,94.70
2023-02-23T12:27:34.022Z,94.46
2023-02-23T12:30:39.619Z,94.40
2023-02-23T12:33:15.333Z,94.26
2023-02-23T12:35:59.503Z,94.60
2023-02-23T12:38:46.455Z,94.70
2023-02-23T12:41:19.090Z,94.65
2023-02-23T12:43:52.384Z,93.86
2023-02-23T12:46:26.239Z,93.50
2023-02-23T12:49:46.609Z,93.41
2023-02-23T12:52:20.179Z,93.09
2023-02-23T12:54:47.342Z,92.96
2023-02-23T12:57:35.096Z,92.66
2023-02-23T13:00:30.415Z,92.46
2023-02-23T13:03:24.935Z,92.07
2023-02-23T13:06:04.315Z,92.56
2023-02-23T13:08:51.672Z,92.01
2023-02-23T13:12:03.070Z,91.45
2023-02-23T13:14:51.565Z,91.54
2023-02-23T13:17:40.550Z,91.58
2023-02-23T13:20:21.519Z,91.53
2023-02-23T13:23:09.586Z,91.36
2023-02-23T13:25:45.354Z,91.07
2023-02-23T13:28:28.326Z,91.20
2023-02-23T13:30:55.347Z,90.63
2023-02-23T13:33:41.914Z,90.02
2023-02-23T13:36:12.895Z,90.08
2023-02-23T13:38:47.679Z,89.90
2023-02-23T13:41:30.824Z,89.63
2023-02-23T13:44:26.441Z,89.13
2023-02-23T13:47:10.481Z,89.17
2023-02-23T13:49:49.450Z,89.30
2023-02-23T13:52:41.983Z,89.41
2023-02-23T13:55:46.909Z,89.49
2023-02-23T13:58:19.386Z,89.94
2023-02-23T14:00:54.726Z,89.63
2023-02-23T14:03:29.178Z,89.79
2023-02-23T14:06:00.366Z,90.28
2023-02-23T14:08:36.625Z,90.48
2023-02-23T14:11:04.181Z,90.83
2023-02-23T14:13:34.732Z,90.75
2023-02-23T14:16:17.411Z,91.27
2023-02-23T14:19:10.383Z,91.31
2023-02-23T14:21:52.470Z,91.63
2023-02-23T14:24:27.778Z,91.35
2023-02-23T14:27:38.438Z,91.27
2023-02-23T14:30:15.089Z,90.64
2023-02-23T14:32:43.379Z,90.51
2023-02-23T14:35:47.881Z,90.36
2023-02-23T14:38:38.770Z,90.72
2023-02-23T14:41:12.790Z,90.46
2023-02-23T14:43:42.795Z,90.42
2023-02-23T14:46:25.210Z,90.11
2023-02-23T14:49:12.454Z,90.30
2023-02-23T14:51:52.281Z,90.77
2023-02-23T14:54:31.747Z,90.62
2023-02-23T14:57:01.165Z,90.74
2023-02-23T14:59:36.210Z,90.90
2023-02-23T15:02:11.688Z,90.83
2023-02-23T15:04:39.730Z,90.92
2023-02-23T15:07:07.268Z,90.87
2023-02-23T15:09:42.100Z,90.79
2023-02-23T15:12:16.825Z,90.80
2023-02-23T15:14:43.973Z,90.88
2023-02-23T15:17:17.993Z,91.02
2023-02-23T15:19:45.958Z,90.88
2023-02-23T15:22:24.316Z,91.41
2023-02-23T15:24:50.949Z,91.89
2023-02-23T15:27:28.530Z,92.68
2023-02-23T15:29:58.457Z,93.13
2023-02-23T15:32:26.499Z,93.53
2023-02-23T15:35:03.615Z,93.92
2023-02-23T15:37:39.654Z,94.20
2023-02-23T15:40:24.382Z,94.57
2023-02-23T15:42:57.641Z,94.80
2023-02-23T15:45:30.377Z,94.97
2023-02-23T15:48:22.808Z,95.36
2023-02-23T15:50:53.239Z,95.32
2023-02-23T15:53:33.486Z,95.52
2023-02-23T15:56:12.662Z,95.89
2023-02-23T15:58:56.142Z,95.79
2023-02-23T16:01:26.211Z,95.98
2023-02-23T16:04:16.777Z,96.22
2023-02-23T16:06:52.285Z,96.55
2023-02-23T16:09:22.294Z,96.96
2023-02-23T16:11:52.518Z,97.22
2023-02-23T16:14:21.198Z,97.37
2023-02-23T16:17:08.518Z,97.41
2023-02-23T16:19:41.225Z,97.71
2023-02-23T16:22:19.466Z,97.83
2023-02-23T16:24:52.627Z,97.67
2023-02-23T16:27:20.112Z,97.89
2023-02-23T16:29:47.031Z,97.96
2023-02-23T16:32:25.369Z,98.21
2023-02-23T16:35:00.146Z,98.28
2023-02-23T16:37:28.059Z,98.03
2023-02-23T16:39:58.179Z,97.86
2023-02-23T16:42:33.124Z,97.92
2023-02-23T16:45:01.027Z,97.63
2023-02-23T16:47:47.721Z,97.90
2023-02-23T16:50:21.538Z,97.58
2023-02-23T16:52:53.278Z,97.60
2023-02-23T16:55:29.017Z,97.66
2023-02-23T16:58:02.528Z,97.30
2023-02-23T17:00:31.732Z,97.79
2023-02-23T17:03:01.074Z,97.53
2023-02-23T17:05:28.715Z,97.20
2023-02-23T17:07:56.804Z,97.56
2023-02-23T17:10:29.796Z,97.55
2023-02-23T17:12:59.096Z,97.57
2023-02-23T17:15:29.333Z,97.44
2023-02-23T17:17:56.595Z,97.55
2023-02-23T17:20:25.976Z,97.34
2023-02-23T17:22:57.455Z,97.21
2023-02-23T17:25:26.570Z,97.35
2023-02-23T17:27:54.233Z,97.03
2023-02-23T17:30:21.545Z,96.96
2023-02-23T17:32:49.096Z,96.57
2023-02-23T17:35:16.209Z,97.00
2023-02-23T17:37:43.284Z,96.76
2023-02-23T17:40:13.064Z,97.08
2023-02-23T17:42:40.043Z,97.10
2023-02-23T17:45:08.000Z,97.52
2023-02-23T17:47:36.883Z,97.42
2023-02-23T17:50:03.584Z,97.34
2023-02-23T17:52:30.353Z,97.02
2023-02-23T17:54:57.947Z,97.48
2023-02-23T17:57:30.447Z,97.52
2023-02-23T17:59:57.791Z,97.35
2023-02-23T18:02:27.361Z,96.77
2023-02-23T18:04:53.901Z,97.25
2023-02-23T18:07:21.670Z,97.14
2023-02-23T18:09:50.201Z,96.96
2023-02-23T18:12:18.281Z,96.51
2023-02-23T18:14:46.149Z,96.86
2023-02-23T18:17:13.746Z,96.58
2023-02-23T18:19:40.294Z,96.58
2023-02-23T18:22:07.025Z,96.64
2023-02-23T18:24:33.827Z,96.44
2023-02-23T18:27:04.151Z,96.64
2023-02-23T18:29:34.042Z,96.67
2023-02-23T18:32:02.705Z,96.42
2023-02-23T18:34:30.522Z,96.63
2023-02-23T18:36:58.672Z,96.42
2023-02-23T18:39:25.310Z,96.14
2023-02-23T18:41:52.124Z,96.13
2023-02-23T18:44:18.986Z,95.95
2023-02-23T18:46:46.460Z,95.86
2023-02-23T18:49:15.531Z,95.24
2023-02-23T18:51:43.364Z,95.21
2023-02-23T18:54:13.116Z,94.91
2023-02-23T18:56:40.396Z,94.85
2023-02-23T18:59:07.168Z,94.45
2023-02-23T19:01:35.054Z,94.14
2023-02-23T19:04:02.505Z,94.20
2023-02-23T19:06:32.567Z,93.61
2023-02-23T19:09:00.430Z,93.53
2023-02-23T19:11:32.280Z,92.52
2023-02-23T19:14:02.047Z,91.99
2023-02-23T19:16:31.093Z,91.55
2023-02-23T19:18:59.614Z,91.56
2023-02-23T19:21:26.657Z,91.23
2023-02-23T19:23:56.392Z,91.00
2023-02-23T19:26:23.847Z,90.95
2023-02-23T19:28:50.511Z,90.69
2023-02-23T19:31:21.097Z,90.58
2023-02-23T19:33:49.676Z,90.38
2023-02-23T19:36:19.572Z,90.34
2023-02-23T19:38:48.877Z,90.45
2023-02-23T19:41:20.662Z,90.46
2023-02-23T19:43:48.212Z,90.50
2023-02-23T19:46:17.322Z,90.52
2023-02-23T19:48:49.315Z,90.29
2023-02-23T19:51:15.983Z,90.63
2023-02-23T19:53:42.529Z,90.66
2023-02-23T19:56:13.094Z,90.87
2023-02-23T19:58:44.775Z,91.16
2023-02-23T20:01:14.616Z,90.96
2023-02-23T20:03:43.244Z,91.38
2023-02-23T20:06:14.648Z,91.50
2023-02-23T20:08:45.987Z,91.94
2023-02-23T20:11:12.468Z,91.68
2023-02-23T20:13:39.237Z,92.12
2023-02-23T20:16:16.705Z,92.50
2023-02-23T20:18:44.073Z,92.59
2023-02-23T20:21:17.138Z,92.68
2023-02-23T20:23:45.416Z,92.88
2023-02-23T20:26:16.738Z,92.85
2023-02-23T20:28:43.367Z,92.82
2023-02-23T20:31:30.487Z,93.35
2023-02-23T20:33:58.933Z,93.47
2023-02-23T20:36:26.521Z,93.78
2023-02-23T20:38:53.213Z,93.72
2023-02-23T20:41:20.721Z,93.94
2023-02-23T20:43:47.442Z,94.24
2023-02-23T20:46:16.624Z,94.02
2023-02-23T20:48:44.095Z,93.86
2023-02-23T20:51:15.175Z,94.10
2023-02-23T20:53:46.715Z,93.82
2023-02-23T20:56:15.546Z,94.02
2023-02-23T20:58:42.379Z,93.99
2023-02-23T21:01:23.164Z,94.10
2023-02-23T21:03:54.194Z,94.00
2023-02-23T21:06:24.615Z,94.16
2023-02-23T21:08:55.804Z,94.41
2023-02-23T21:11:26.903Z,94.30
2023-02-23T21:13:54.124Z,94.54
2023-02-23T21:16:23.661Z,94.40
2023-02-23T21:18:54.007Z,94.45
2023-02-23T21:21:21.031Z,94.77
2023-02-23T21:23:48.838Z,94.67
2023-02-23T21:26:16.035Z,94.74
2023-02-23T21:28:44.360Z,94.98
2023-02-23T21:31:12.954Z,94.86
2023-02-23T21:33:42.770Z,94.92
2023-02-23T21:36:11.273Z,95.04
2023-02-23T21:38:43.439Z,94.92
2023-02-23T21:41:15.381Z,95.11
2023-02-23T21:43:43.351Z,95.21
2023-02-23T21:46:16.557Z,95.37
2023-02-23T21:48:43.762Z,95.19
2023-02-23T21:51:12.826Z,95.13
2023-02-23T21:53:43.360Z,95.52
2023-02-23T21:56:14.039Z,95.55
2023-02-23T21:58:49.020Z,95.54
2023-02-23T22:01:18.415Z,95.57
2023-02-23T22:03:46.370Z,95.79
2023-02-23T22:06:17.449Z,95.71
2023-02-23T22:08:44.941Z,95.74
2023-02-23T22:11:19.947Z,95.71
2023-02-23T22:13:48.971Z,95.78
2023-02-23T22:16:17.878Z,95.92
2023-02-23T22:18:44.610Z,96.08
2023-02-23T22:21:14.646Z,95.90
2023-02-23T22:23:43.835Z,96.29
2023-02-23T22:26:10.532Z,95.93
2023-02-23T22:28:37.310Z,96.08
2023-02-23T22:31:07.203Z,95.76
2023-02-23T22:33:35.043Z,95.66
2023-02-23T22:36:03.725Z,96.05
2023-02-23T22:38:30.774Z,96.03
2023-02-23T22:40:57.341Z,96.21
2023-02-23T22:43:23.771Z,96.53
2023-02-23T22:45:54.971Z,96.56
2023-02-23T22:48:23.251Z,96.46
2023-02-23T22:50:50.804Z,96.29
2023-02-23T22:53:17.933Z,96.66
2023-02-23T22:55:49.367Z,96.63
2023-02-23T22:58:16.174Z,96.36
2023-02-23T23:01:01.978Z,96.50
2023-02-23T23:03:32.324Z,96.61
2023-02-23T23:06:02.524Z,96.48
2023-02-23T23:08:30.970Z,96.25
2023-02-23T23:11:04.009Z,96.62
2023-02-23T23:13:33.272Z,96.82
2023-02-23T23:16:07.808Z,96.58
2023-02-23T23:18:36.161Z,96.52
2023-02-23T23:21:13.161Z,96.38
2023-02-23T23:23:42.480Z,96.51
2023-02-23T23:26:19.996Z,96.26
2023-02-23T23:28:58.931Z,96.67
2023-02-23T23:31:29.304Z,96.50
2023-02-23T23:34:00.450Z,97.02
2023-02-23T23:36:32.068Z,96.73
2023-02-23T23:39:01.273Z,97.06
2023-02-23T23:41:38.182Z,97.37
2023-02-23T23:44:05.779Z,97.26
2023-02-23T23:46:38.435Z,97.23
2023-02-23T23:49:08.231Z,97.47
2023-02-23T23:51:44.869Z,97.66
2023-02-23T23:54:19.957Z,97.45
2023-02-23T23:56:46.529Z,98.09
2023-02-23T23:59:20.534Z,97.58
